Aviation Digital Data Service (ADDS)

Output produced by METARs form (0247 UTC 23 April 2021)
found at http://aviationweather.gov/metar/data/
 
KFME 230235Z AUTO 00000KT 10SM SCT100 01/M01 A3010 RMK AO1
KBWI 230154Z COR 00000KT 10SM BKN100 05/M06 A3006 RMK AO2 SLP178 T00501056
KBWI 222320Z 2300/2406 29010G20KT P6SM SCT090 
     FM230200 27007KT P6SM SCT090 
     FM230600 25004KT P6SM SKC 
     FM231400 27010G18KT P6SM SKC 
     FM232200 26009KT P6SM SCT200
       
KESN 230235Z AUTO 00000KT 10SM CLR 08/M05 A3011 RMK AO2 T00751051
KCGE 230235Z AUTO 29005KT 10SM OVC075 08/M05 A3008 RMK A01
KSBY 230154Z 27003KT 10SM CLR 07/M04 A3006 RMK AO2 SLP181 T00671044
KSBY 222326Z 2300/2324 29012G20KT P6SM SKC 
     FM230100 29009KT P6SM SCT200 
     FM230300 28004KT P6SM SKC 
     FM231500 28012G20KT P6SM SKC 
     FM232100 25012G20KT P6SM SCT200 
     FM232300 23009KT P6SM SCT200
       
KOXB 230153Z AUTO CLR 06/M03 A3007 RMK AO2 SLP181 T00561028 $
KFDK 230235Z AUTO 28006KT 10SM SCT080 SCT100 06/M06 A3008 RMK AO2
KHGR 230153Z 30005KT 10SM CLR 04/M07 A3005 RMK AO2 SLP189 T00441067